Terminal Aerodrome Forecast
Issued by NWS

Home | Current Version | Previous Version | Text Only | Print | Product List | Glossary Off
Versions: 1 2 3 4 5 6 7 8 9 10 11 12 13 14 15 16 17 18 19

000
FTUS43 KMPX 271731
TAFRWF
TAF
KRWF 271731Z 2718/2818 26009KT P6SM SKC
     FM272000 27007KT P6SM SCT080
     FM280000 VRB03KT P6SM SKC
     FM280500 12004KT P6SM SCT090 BKN250
     FM281400 18015G25KT P6SM OVC100=

USA.gov is the U.S. government's official web portal to all federal, state and local government web resources and services.